createdAt,value
2018-09-28T00:00:47.911Z,7.80
2018-09-28T00:03:15.484Z,6.07
2018-09-28T00:05:43.070Z,5.10
2018-09-28T00:08:10.772Z,5.00
2018-09-28T00:10:38.420Z,4.90
2018-09-28T00:13:06.080Z,4.97
2018-09-28T00:15:33.747Z,5.05
2018-09-28T00:18:01.372Z,5.10
2018-09-28T00:23:01.256Z,4.87
2018-09-28T00:25:28.901Z,4.83
2018-09-28T00:27:56.848Z,3.92
2018-09-28T00:30:24.441Z,3.83
2018-09-28T00:32:52.149Z,3.50
2018-09-28T00:35:19.774Z,4.23
2018-09-28T00:37:47.458Z,3.70
2018-09-28T00:40:15.083Z,4.15
2018-09-28T00:42:42.658Z,4.27
2018-09-28T00:45:10.307Z,4.00
2018-09-28T00:47:37.954Z,3.85
2018-09-28T00:50:05.898Z,3.50
2018-09-28T00:52:33.783Z,4.40
2018-09-28T00:55:01.430Z,4.93
2018-09-28T00:57:29.110Z,3.67
2018-09-28T00:59:56.710Z,3.95
2018-09-28T01:02:24.371Z,4.13
2018-09-28T01:04:52.123Z,3.70
2018-09-28T01:07:19.733Z,3.55
2018-09-28T01:09:47.352Z,3.52
2018-09-28T01:12:14.968Z,2.50
2018-09-28T01:14:42.639Z,2.60
2018-09-28T01:17:10.263Z,3.08
2018-09-28T01:19:37.920Z,2.73
2018-09-28T01:22:05.557Z,2.92
2018-09-28T01:24:33.324Z,3.05
2018-09-28T01:27:00.987Z,2.90
2018-09-28T01:29:28.781Z,2.30
2018-09-28T01:31:56.411Z,4.53
2018-09-28T01:34:24.047Z,2.52
2018-09-28T01:36:51.944Z,4.28
2018-09-28T01:39:20.021Z,2.67
2018-09-28T01:41:47.759Z,2.83
2018-09-28T01:44:15.843Z,3.30
2018-09-28T01:46:43.475Z,2.90
2018-09-28T01:49:11.344Z,3.00
2018-09-28T01:51:39.000Z,4.23
2018-09-28T01:54:06.850Z,2.80
2018-09-28T01:56:34.504Z,3.87
2018-09-28T01:59:02.278Z,3.80
2018-09-28T02:01:29.964Z,3.37
2018-09-28T02:03:58.000Z,4.10
2018-09-28T02:06:25.610Z,3.37
2018-09-28T02:08:53.260Z,3.80
2018-09-28T02:11:20.928Z,5.30
2018-09-28T02:13:48.582Z,2.93
2018-09-28T02:16:16.227Z,3.60
2018-09-28T02:18:43.834Z,4.95
2018-09-28T02:21:11.679Z,4.03
2018-09-28T02:23:39.310Z,4.27
2018-09-28T02:26:07.518Z,4.67
2018-09-28T02:28:35.162Z,3.73
2018-09-28T02:31:02.911Z,3.23
2018-09-28T02:33:30.659Z,4.40
2018-09-28T02:35:58.493Z,3.70
2018-09-28T02:38:26.092Z,3.98
2018-09-28T02:40:53.773Z,4.70
2018-09-28T02:43:21.471Z,3.72
2018-09-28T02:45:49.059Z,3.83
2018-09-28T02:48:16.989Z,4.30
2018-09-28T02:50:44.835Z,3.83
2018-09-28T02:53:18.637Z,4.50
2018-09-28T02:55:47.628Z,4.03
2018-09-28T02:58:15.248Z,4.30
2018-09-28T03:00:54.088Z,3.52
2018-09-28T03:03:22.020Z,4.43
2018-09-28T03:05:49.775Z,4.47
2018-09-28T03:08:17.413Z,4.90
2018-09-28T03:10:45.057Z,4.23
2018-09-28T03:13:12.697Z,5.37
2018-09-28T03:15:40.664Z,4.70
2018-09-28T03:18:08.355Z,5.07
2018-09-28T03:20:36.036Z,4.80
2018-09-28T03:23:03.679Z,4.05
2018-09-28T03:25:31.338Z,4.77
2018-09-28T03:27:59.102Z,4.77
2018-09-28T03:30:26.787Z,5.30
2018-09-28T03:32:54.472Z,4.53
2018-09-28T03:35:22.129Z,4.93
2018-09-28T03:37:49.803Z,5.45
2018-09-28T03:40:17.497Z,4.53
2018-09-28T03:42:45.164Z,4.90
2018-09-28T03:45:12.821Z,5.73
2018-09-28T03:47:42.858Z,5.40
2018-09-28T03:50:10.603Z,5.37
2018-09-28T03:52:38.190Z,5.03
2018-09-28T03:55:06.097Z,5.65
2018-09-28T03:57:34.663Z,4.92
2018-09-28T04:00:02.441Z,5.17
2018-09-28T04:02:30.046Z,5.10
2018-09-28T04:04:57.776Z,5.40
2018-09-28T04:07:25.465Z,5.13
2018-09-28T04:09:53.300Z,5.13
2018-09-28T04:12:21.008Z,5.87
2018-09-28T04:14:48.620Z,5.70
2018-09-28T04:17:16.269Z,5.45
2018-09-28T04:19:43.899Z,5.33
2018-09-28T04:22:11.857Z,4.80
2018-09-28T04:24:39.577Z,5.50
2018-09-28T04:27:07.542Z,6.13
2018-09-28T04:29:35.196Z,6.60
2018-09-28T04:32:02.822Z,6.70
2018-09-28T04:34:30.506Z,6.55
2018-09-28T04:36:58.186Z,5.90
2018-09-28T04:39:25.810Z,5.65
2018-09-28T04:41:53.501Z,6.25
2018-09-28T04:44:22.178Z,5.97
2018-09-28T04:46:49.834Z,7.10
2018-09-28T04:49:17.562Z,6.30
2018-09-28T04:51:45.126Z,6.50
2018-09-28T04:54:12.858Z,6.13
2018-09-28T04:56:40.523Z,6.80
2018-09-28T04:59:08.351Z,7.05
2018-09-28T05:01:36.170Z,7.08
2018-09-28T05:04:03.779Z,6.17
2018-09-28T05:06:31.452Z,7.03
2018-09-28T05:08:59.297Z,8.50
2018-09-28T05:11:26.925Z,6.27
2018-09-28T05:13:54.556Z,7.42
2018-09-28T05:16:22.194Z,6.83
2018-09-28T05:18:49.833Z,6.33
2018-09-28T05:21:17.449Z,5.80
2018-09-28T05:23:45.127Z,6.30
2018-09-28T05:26:12.819Z,6.53
2018-09-28T05:28:40.624Z,8.23
2018-09-28T05:31:08.459Z,7.25
2018-09-28T05:33:36.115Z,7.62
2018-09-28T05:36:05.063Z,7.83
2018-09-28T05:38:32.833Z,7.83
2018-09-28T05:41:00.685Z,8.40
2018-09-28T05:43:28.352Z,8.33
2018-09-28T05:45:55.988Z,7.87
2018-09-28T05:48:23.659Z,8.23
2018-09-28T05:50:51.261Z,7.20
2018-09-28T05:53:18.907Z,7.87
2018-09-28T05:55:46.738Z,8.77
2018-09-28T05:58:20.169Z,9.13
2018-09-28T06:00:53.602Z,8.43
2018-09-28T06:03:21.863Z,7.47
2018-09-28T06:05:55.289Z,7.80
2018-09-28T06:08:22.901Z,7.10
2018-09-28T06:10:50.612Z,7.33
2018-09-28T06:13:19.416Z,7.87
2018-09-28T06:15:47.136Z,6.70
2018-09-28T06:18:14.821Z,7.33
2018-09-28T06:20:42.502Z,7.83
2018-09-28T06:23:10.258Z,8.77
2018-09-28T06:25:37.879Z,8.50
2018-09-28T06:28:05.607Z,7.30
2018-09-28T06:30:33.294Z,7.12
2018-09-28T06:33:00.972Z,7.08
2018-09-28T06:35:28.588Z,8.07
2018-09-28T06:37:56.226Z,7.37
2018-09-28T06:40:23.944Z,7.95
2018-09-28T06:42:51.549Z,8.80
2018-09-28T06:45:19.216Z,9.30
2018-09-28T06:47:47.818Z,8.47
2018-09-28T06:50:15.501Z,9.18
2018-09-28T06:52:43.202Z,9.35
2018-09-28T06:55:10.888Z,9.33
2018-09-28T06:57:38.588Z,10.00
2018-09-28T07:00:07.137Z,11.83
2018-09-28T07:02:34.774Z,11.70
2018-09-28T07:05:02.590Z,12.33
2018-09-28T07:07:30.298Z,12.10
2018-09-28T07:09:58.120Z,10.97
2018-09-28T07:12:25.745Z,13.30
2018-09-28T07:14:53.437Z,12.30
2018-09-28T07:17:21.081Z,12.57
2018-09-28T07:19:48.806Z,11.60
2018-09-28T07:22:16.481Z,11.03
2018-09-28T07:24:44.098Z,11.25
2018-09-28T07:27:11.781Z,12.33
2018-09-28T07:29:39.412Z,11.12
2018-09-28T07:32:07.119Z,13.90
2018-09-28T07:34:34.769Z,14.80
2018-09-28T07:37:02.562Z,14.47
2018-09-28T07:39:30.027Z,12.50
2018-09-28T07:41:57.818Z,14.98
2018-09-28T07:44:25.312Z,13.67
2018-09-28T07:46:52.974Z,13.90
2018-09-28T07:49:20.615Z,14.50
2018-09-28T07:51:48.242Z,14.83
2018-09-28T07:54:15.965Z,14.13
2018-09-28T07:56:43.795Z,15.85
2018-09-28T07:59:11.471Z,15.43
2018-09-28T08:01:39.048Z,16.13
2018-09-28T08:04:07.147Z,18.73
2018-09-28T08:06:34.792Z,16.63
2018-09-28T08:09:03.480Z,17.97
2018-09-28T08:11:31.135Z,17.95
2018-09-28T08:13:58.760Z,18.27
2018-09-28T08:16:26.500Z,17.33
2018-09-28T08:18:54.077Z,20.17
2018-09-28T08:21:21.756Z,18.20
2018-09-28T08:23:49.762Z,19.70
2018-09-28T08:26:19.274Z,20.88
2018-09-28T08:28:46.903Z,17.93
2018-09-28T08:31:14.510Z,16.75
2018-09-28T08:33:42.156Z,20.23
2018-09-28T08:36:09.999Z,18.90
2018-09-28T08:38:37.618Z,18.80
2018-09-28T08:41:05.779Z,19.60
2018-09-28T08:43:33.431Z,20.60
2018-09-28T08:46:01.102Z,18.48
2018-09-28T08:48:28.964Z,20.88
2018-09-28T08:50:56.634Z,21.42
2018-09-28T08:53:24.297Z,20.30
2018-09-28T08:55:52.019Z,19.77
2018-09-28T08:58:19.741Z,19.60
2018-09-28T09:00:47.486Z,18.75
2018-09-28T09:03:15.198Z,18.50
2018-09-28T09:05:42.919Z,19.80
2018-09-28T09:08:10.813Z,20.90
2018-09-28T09:10:38.493Z,18.95
2018-09-28T09:13:06.211Z,20.00
2018-09-28T09:15:33.843Z,21.07
2018-09-28T09:18:01.605Z,20.00
2018-09-28T09:20:29.261Z,20.40
2018-09-28T09:22:56.845Z,19.82
2018-09-28T09:25:24.507Z,20.27
2018-09-28T09:27:52.294Z,20.80
2018-09-28T09:30:20.354Z,20.75
2018-09-28T09:32:47.986Z,20.03
2018-09-28T09:35:15.843Z,19.75
2018-09-28T09:37:43.406Z,21.82
2018-09-28T09:40:11.052Z,20.43
2018-09-28T09:42:38.827Z,21.07
2018-09-28T09:45:06.512Z,21.97
2018-09-28T09:47:34.236Z,20.10
2018-09-28T09:50:01.948Z,20.55
2018-09-28T09:52:29.651Z,20.33
2018-09-28T09:54:57.330Z,19.20
2018-09-28T09:57:25.108Z,20.53
2018-09-28T09:59:52.770Z,20.23
2018-09-28T10:02:26.304Z,20.20
2018-09-28T10:04:53.959Z,21.90
2018-09-28T10:07:21.630Z,21.42
2018-09-28T10:09:49.492Z,24.15
2018-09-28T10:12:17.056Z,25.53
2018-09-28T10:14:44.713Z,26.87
2018-09-28T10:17:12.339Z,26.23
2018-09-28T10:19:40.587Z,24.50
2018-09-28T10:22:08.290Z,24.50
2018-09-28T10:24:35.891Z,25.85
2018-09-28T10:27:03.668Z,25.17
2018-09-28T10:29:31.335Z,25.87
2018-09-28T10:31:58.990Z,25.70
2018-09-28T10:34:26.668Z,24.20
2018-09-28T10:36:54.370Z,22.67
2018-09-28T10:39:22.068Z,24.10
2018-09-28T10:41:49.670Z,21.82
2018-09-28T10:44:17.310Z,21.57
2018-09-28T10:46:45.053Z,20.90
2018-09-28T10:49:12.683Z,20.53
2018-09-28T10:51:40.395Z,20.35
2018-09-28T10:54:08.026Z,21.30
2018-09-28T10:56:35.784Z,20.90
2018-09-28T10:59:15.211Z,20.73
2018-09-28T11:01:42.931Z,20.80
2018-09-28T11:04:10.640Z,20.95
2018-09-28T11:06:38.317Z,16.02
2018-09-28T11:09:08.726Z,16.13
2018-09-28T11:11:36.386Z,15.27
2018-09-28T11:14:04.055Z,14.20
2018-09-28T11:16:31.718Z,13.65
2018-09-28T11:18:59.475Z,15.97
2018-09-28T11:21:27.244Z,17.33
2018-09-28T11:23:54.835Z,15.17
2018-09-28T11:26:22.473Z,15.13
2018-09-28T11:28:50.124Z,15.67
2018-09-28T11:31:17.902Z,15.23
2018-09-28T11:33:45.635Z,15.30
2018-09-28T11:36:13.410Z,14.80
2018-09-28T11:38:41.083Z,15.15
2018-09-28T11:41:08.768Z,13.50
2018-09-28T11:43:36.466Z,11.78
2018-09-28T11:46:04.194Z,11.97
2018-09-28T11:48:31.913Z,10.97
2018-09-28T11:50:59.720Z,10.87
2018-09-28T11:53:27.440Z,9.07
2018-09-28T11:55:55.112Z,11.20
2018-09-28T11:58:22.804Z,13.40
2018-09-28T12:00:50.708Z,11.47
2018-09-28T12:03:18.412Z,12.60
2018-09-28T12:05:46.076Z,10.30
2018-09-28T12:08:13.767Z,7.47
2018-09-28T12:10:41.551Z,7.62
2018-09-28T12:13:09.299Z,5.00
2018-09-28T12:15:37.020Z,4.00
2018-09-28T12:18:04.949Z,4.12
2018-09-28T12:20:32.590Z,4.42
2018-09-28T12:23:00.213Z,7.23
2018-09-28T12:25:27.853Z,5.60
2018-09-28T12:27:55.506Z,8.30
2018-09-28T12:30:32.953Z,7.70
2018-09-28T12:33:00.551Z,5.80
2018-09-28T12:35:28.248Z,6.15
2018-09-28T12:37:55.903Z,5.55
2018-09-28T12:40:23.577Z,5.10
2018-09-28T12:42:51.301Z,5.97
2018-09-28T12:45:18.971Z,6.80
2018-09-28T12:47:46.623Z,6.37
2018-09-28T12:50:14.402Z,5.80
2018-09-28T12:52:42.042Z,7.20
2018-09-28T12:55:09.818Z,7.00
2018-09-28T12:57:37.531Z,7.27
2018-09-28T13:00:05.445Z,7.72
2018-09-28T13:02:33.156Z,6.60
2018-09-28T13:05:00.788Z,7.72
2018-09-28T13:07:28.471Z,8.60
2018-09-28T13:09:56.232Z,7.63
2018-09-28T13:12:23.905Z,7.57
2018-09-28T13:14:51.626Z,8.80
2018-09-28T13:17:19.324Z,9.43
2018-09-28T13:19:46.922Z,8.15
2018-09-28T13:22:14.664Z,8.30
2018-09-28T13:24:42.448Z,10.20
2018-09-28T13:27:10.114Z,8.77
2018-09-28T13:29:37.769Z,8.28
2018-09-28T13:32:05.405Z,10.17
2018-09-28T13:34:33.021Z,10.38
2018-09-28T13:37:00.688Z,9.73
2018-09-28T13:39:28.329Z,10.00
2018-09-28T13:41:55.925Z,11.03
2018-09-28T13:44:23.614Z,11.38
2018-09-28T13:46:51.297Z,10.73
2018-09-28T13:49:19.193Z,12.03
2018-09-28T13:51:46.848Z,13.10
2018-09-28T13:54:14.736Z,10.83
2018-09-28T13:56:42.537Z,11.40
2018-09-28T13:59:10.166Z,10.68
2018-09-28T14:01:37.815Z,10.60
2018-09-28T14:04:05.575Z,11.68
2018-09-28T14:06:33.335Z,11.05
2018-09-28T14:09:00.997Z,12.37
2018-09-28T14:11:28.666Z,12.40
2018-09-28T14:13:57.006Z,9.83
2018-09-28T14:16:24.699Z,9.90
2018-09-28T14:18:52.352Z,12.20
2018-09-28T14:21:20.091Z,10.50
2018-09-28T14:23:48.033Z,13.00
2018-09-28T14:26:15.979Z,11.68
2018-09-28T14:28:43.761Z,12.75
2018-09-28T14:31:11.474Z,13.50
2018-09-28T14:33:39.211Z,13.20
2018-09-28T14:36:07.034Z,12.93
2018-09-28T14:38:34.783Z,15.00
2018-09-28T14:41:02.599Z,13.60
2018-09-28T14:43:30.245Z,14.13
2018-09-28T14:45:58.058Z,15.25
2018-09-28T14:48:25.863Z,13.73
2018-09-28T14:50:53.496Z,14.30
2018-09-28T14:53:21.197Z,13.80
2018-09-28T14:55:48.917Z,11.90
2018-09-28T14:58:16.567Z,12.10
2018-09-28T15:00:44.280Z,11.20
2018-09-28T15:03:12.011Z,11.73
2018-09-28T15:05:39.870Z,12.13
2018-09-28T15:08:07.587Z,11.15
2018-09-28T15:10:35.347Z,11.03
2018-09-28T15:13:03.033Z,9.87
2018-09-28T15:15:30.911Z,7.60
2018-09-28T15:17:58.634Z,7.37
2018-09-28T15:20:26.393Z,5.20
2018-09-28T15:22:54.097Z,5.03
2018-09-28T15:25:21.867Z,4.95
2018-09-28T15:27:49.590Z,3.12
2018-09-28T15:30:17.436Z,3.10
2018-09-28T15:32:45.213Z,3.50
2018-09-28T15:35:13.153Z,2.63
2018-09-28T15:37:40.907Z,2.50
2018-09-28T15:40:08.652Z,2.13
2018-09-28T15:42:36.343Z,1.97
2018-09-28T15:45:04.251Z,2.90
2018-09-28T15:47:32.044Z,2.37
2018-09-28T15:49:59.794Z,2.33
2018-09-28T15:52:27.518Z,2.87
2018-09-28T15:54:55.320Z,1.97
2018-09-28T15:57:23.050Z,2.73
2018-09-28T15:59:50.744Z,2.13
2018-09-28T16:02:19.288Z,2.40
2018-09-28T16:04:46.970Z,2.00
2018-09-28T16:07:14.658Z,2.77
2018-09-28T16:09:42.314Z,2.53
2018-09-28T16:12:10.244Z,2.42
2018-09-28T16:14:37.935Z,3.00
2018-09-28T16:17:05.799Z,2.62
2018-09-28T16:19:33.489Z,3.17
2018-09-28T16:22:01.320Z,2.30
2018-09-28T16:24:28.942Z,3.40
2018-09-28T16:26:56.641Z,2.83
2018-09-28T16:29:24.331Z,2.77
2018-09-28T16:31:52.034Z,2.62
2018-09-28T16:34:20.058Z,2.90
2018-09-28T16:36:47.766Z,2.30
2018-09-28T16:39:15.499Z,3.08
2018-09-28T16:41:43.171Z,2.60
2018-09-28T16:44:10.789Z,3.67
2018-09-28T16:46:38.512Z,3.83
2018-09-28T16:49:13.011Z,2.42
2018-09-28T16:51:40.776Z,3.27
2018-09-28T16:54:08.540Z,3.63
2018-09-28T16:56:36.209Z,3.40
2018-09-28T16:59:03.978Z,3.00
2018-09-28T17:01:31.770Z,3.10
2018-09-28T17:03:59.435Z,3.07
2018-09-28T17:06:27.098Z,2.73
2018-09-28T17:08:54.785Z,2.83
2018-09-28T17:11:22.508Z,3.70
2018-09-28T17:13:50.250Z,2.57
2018-09-28T17:16:17.940Z,3.23
2018-09-28T17:18:45.576Z,2.93
2018-09-28T17:21:13.254Z,2.47
2018-09-28T17:23:40.897Z,3.03
2018-09-28T17:26:08.570Z,2.65
2018-09-28T17:28:36.327Z,2.80
2018-09-28T17:31:04.016Z,3.03
2018-09-28T17:33:32.044Z,2.17
2018-09-28T17:35:59.830Z,3.40
2018-09-28T17:38:27.501Z,3.07
2018-09-28T17:40:55.200Z,2.40
2018-09-28T17:43:22.938Z,2.37
2018-09-28T17:45:50.653Z,2.33
2018-09-28T17:48:18.354Z,2.40
2018-09-28T17:50:46.031Z,2.27
2018-09-28T17:53:13.854Z,2.60
2018-09-28T17:55:41.858Z,2.90
2018-09-28T17:58:09.688Z,3.00
2018-09-28T18:00:37.415Z,2.77
2018-09-28T18:03:05.549Z,2.52
2018-09-28T18:05:33.246Z,2.93
2018-09-28T18:08:00.997Z,2.75
2018-09-28T18:10:28.817Z,2.95
2018-09-28T18:12:56.661Z,1.83
2018-09-28T18:15:24.323Z,1.97
2018-09-28T18:17:52.140Z,2.77
2018-09-28T18:20:19.972Z,2.60
2018-09-28T18:22:47.583Z,2.17
2018-09-28T18:25:15.344Z,2.20
2018-09-28T18:27:43.158Z,2.50
2018-09-28T18:30:10.838Z,2.17
2018-09-28T18:32:38.461Z,3.07
2018-09-28T18:35:06.511Z,2.23
2018-09-28T18:37:34.209Z,2.03
2018-09-28T18:40:02.058Z,2.30
2018-09-28T18:42:29.960Z,2.50
2018-09-28T18:44:57.678Z,3.17
2018-09-28T18:47:25.446Z,3.15
2018-09-28T18:49:53.097Z,2.27
2018-09-28T18:52:20.885Z,3.40
2018-09-28T18:54:48.547Z,2.45
2018-09-28T18:57:16.236Z,2.47
2018-09-28T18:59:44.185Z,1.50
2018-09-28T19:02:11.852Z,1.77
2018-09-28T19:04:39.504Z,2.67
2018-09-28T19:07:07.153Z,2.12
2018-09-28T19:09:34.809Z,2.27
2018-09-28T19:12:02.541Z,1.77
2018-09-28T19:14:30.285Z,1.70
2018-09-28T19:16:58.109Z,2.37
2018-09-28T19:19:25.883Z,2.50
2018-09-28T19:21:53.540Z,1.50
2018-09-28T19:24:21.301Z,2.65
2018-09-28T19:26:48.962Z,1.82
2018-09-28T19:29:16.641Z,1.80
2018-09-28T19:31:44.471Z,1.70
2018-09-28T19:34:12.198Z,2.03
2018-09-28T19:36:39.914Z,2.20
2018-09-28T19:39:14.213Z,1.72
2018-09-28T19:41:42.115Z,2.03
2018-09-28T19:44:09.951Z,1.70
2018-09-28T19:46:37.634Z,2.30
2018-09-28T19:49:05.489Z,2.87
2018-09-28T19:51:33.243Z,2.62
2018-09-28T19:54:00.975Z,1.60
2018-09-28T19:56:28.674Z,1.87
2018-09-28T19:58:56.551Z,3.00
2018-09-28T20:01:24.641Z,3.47
2018-09-28T20:03:52.415Z,2.30
2018-09-28T20:06:20.243Z,1.90
2018-09-28T20:08:47.984Z,2.50
2018-09-28T20:11:15.690Z,1.43
2018-09-28T20:13:43.440Z,1.95
2018-09-28T20:16:11.058Z,1.65
2018-09-28T20:18:38.812Z,1.83
2018-09-28T20:21:06.586Z,2.60
2018-09-28T20:23:34.352Z,2.07
2018-09-28T20:26:02.001Z,1.77
2018-09-28T20:28:29.699Z,2.80
2018-09-28T20:30:57.368Z,2.15
2018-09-28T20:33:25.024Z,2.47
2018-09-28T20:35:52.725Z,1.60
2018-09-28T20:38:20.429Z,2.60
2018-09-28T20:40:48.113Z,1.60
2018-09-28T20:43:15.706Z,1.80
2018-09-28T20:45:43.419Z,2.57
2018-09-28T20:48:11.134Z,2.53
2018-09-28T20:50:38.802Z,1.57
2018-09-28T20:53:06.580Z,2.40
2018-09-28T20:55:34.342Z,2.00
2018-09-28T20:58:02.042Z,1.80
2018-09-28T21:00:29.711Z,2.00
2018-09-28T21:02:57.331Z,1.92
2018-09-28T21:05:24.941Z,1.30
2018-09-28T21:10:27.023Z,2.07
2018-09-28T21:12:54.641Z,1.67
2018-09-28T21:15:22.242Z,1.40
2018-09-28T21:17:49.874Z,1.63
2018-09-28T21:20:17.505Z,1.63
2018-09-28T21:22:45.130Z,1.55
2018-09-28T21:25:12.766Z,1.97
2018-09-28T21:27:40.378Z,2.03
2018-09-28T21:30:08.018Z,1.40
2018-09-28T21:32:35.646Z,2.37
2018-09-28T21:35:03.308Z,1.95
2018-09-28T21:37:30.988Z,2.33
2018-09-28T21:39:58.693Z,1.73
2018-09-28T21:42:26.418Z,2.37
2018-09-28T21:44:54.038Z,3.57
2018-09-28T21:47:21.712Z,1.50
2018-09-28T21:49:49.390Z,2.50
2018-09-28T21:52:17.126Z,1.70
2018-09-28T21:54:44.785Z,4.70
2018-09-28T21:57:12.473Z,1.75
2018-09-28T21:59:40.249Z,1.60
2018-09-28T22:02:07.932Z,1.93
2018-09-28T22:04:35.673Z,2.08
2018-09-28T22:07:03.338Z,1.80
2018-09-28T22:09:30.991Z,2.30
2018-09-28T22:11:58.617Z,2.30
2018-09-28T22:14:26.255Z,2.02
2018-09-28T22:16:53.964Z,2.87
2018-09-28T22:19:21.597Z,3.13
2018-09-28T22:21:49.243Z,1.87
2018-09-28T22:24:17.064Z,2.12
2018-09-28T22:26:44.690Z,1.23
2018-09-28T22:29:12.425Z,2.60
2018-09-28T22:31:40.078Z,2.35
2018-09-28T22:34:07.738Z,1.40
2018-09-28T22:36:35.464Z,1.70
2018-09-28T22:39:04.954Z,1.20
2018-09-28T22:41:32.588Z,1.77
2018-09-28T22:44:00.226Z,1.87
2018-09-28T22:46:27.799Z,1.70
2018-09-28T22:48:55.428Z,2.37
2018-09-28T22:51:23.062Z,1.40
2018-09-28T22:53:50.630Z,1.82
2018-09-28T22:56:18.296Z,1.43
2018-09-28T22:58:45.946Z,1.13
2018-09-28T23:01:13.718Z,1.30
2018-09-28T23:03:41.346Z,1.85
2018-09-28T23:06:09.003Z,1.70
2018-09-28T23:08:36.681Z,2.08
2018-09-28T23:11:04.364Z,1.27
2018-09-28T23:13:31.989Z,1.97
2018-09-28T23:15:59.637Z,1.37
2018-09-28T23:18:27.308Z,2.67
2018-09-28T23:20:54.953Z,2.35
2018-09-28T23:23:22.584Z,2.30
2018-09-28T23:25:50.217Z,1.60
2018-09-28T23:28:17.971Z,1.40
2018-09-28T23:30:45.595Z,1.35
2018-09-28T23:33:13.171Z,1.43
2018-09-28T23:35:40.723Z,1.30
2018-09-28T23:38:08.288Z,1.00
2018-09-28T23:40:35.952Z,1.50
2018-09-28T23:43:03.579Z,1.70
2018-09-28T23:45:31.197Z,1.17
2018-09-28T23:47:58.877Z,1.40
2018-09-28T23:50:26.563Z,1.40
2018-09-28T23:52:54.274Z,1.57
2018-09-28T23:55:21.973Z,1.77
2018-09-28T23:57:49.591Z,0.93
